Time;durP1;ratioP1;P1;durP2;ratioP2;P2;SDS_P1;SDS_P2;PMS_P1;PMS_P2;Temp;Humidity;BMP_temperature;BMP_pressure;BME280_temperature;BME280_humidity;BME280_pressure;Samples;Min_cycle;Max_cycle;Signal;HPM_P1;HPM_P2
2023/08/08 00:02:01;;;;;;;2.80;2.70;;;;;;;;;;5001342;28;20436;-78
2023/08/08 00:04:27;;;;;;;5.97;2.80;;;;;;;;;;5019307;28;20458;-77
2023/08/08 00:06:53;;;;;;;2.70;2.60;;;;;;;;;;5003344;28;20995;-77
2023/08/08 00:09:19;;;;;;;3.40;3.20;;;;;;;;;;5017854;28;20446;-76
2023/08/08 00:11:45;;;;;;;3.27;3.07;;;;;;;;;;5000917;28;20423;-78
2023/08/08 00:14:11;;;;;;;2.97;2.80;;;;;;;;;;5018529;28;20442;-78
2023/08/08 00:16:37;;;;;;;3.50;3.03;;;;;;;;;;5023247;28;20449;-77
2023/08/08 00:19:03;;;;;;;2.80;2.60;;;;;;;;;;5019153;28;21011;-78
2023/08/08 00:21:29;;;;;;;3.30;3.17;;;;;;;;;;5022119;28;20415;-77
2023/08/08 00:23:55;;;;;;;2.83;2.70;;;;;;;;;;5018132;28;20524;-77
2023/08/08 00:26:21;;;;;;;3.10;2.93;;;;;;;;;;5020618;28;20564;-76
2023/08/08 00:28:47;;;;;;;2.20;2.20;;;;;;;;;;5019024;28;20449;-76
2023/08/08 00:31:13;;;;;;;2.70;2.50;;;;;;;;;;5021318;28;20450;-77
2023/08/08 00:33:39;;;;;;;2.80;2.70;;;;;;;;;;5021828;28;20508;-77
2023/08/08 00:36:05;;;;;;;2.83;2.63;;;;;;;;;;5022586;28;20419;-77
2023/08/08 00:38:31;;;;;;;2.23;2.23;;;;;;;;;;5019499;28;20782;-77
2023/08/08 00:40:57;;;;;;;2.50;2.50;;;;;;;;;;5020498;28;20461;-78
2023/08/08 00:43:23;;;;;;;3.37;3.27;;;;;;;;;;5019973;28;20458;-76
2023/08/08 00:45:49;;;;;;;3.00;2.80;;;;;;;;;;5024283;28;20450;-77
2023/08/08 00:48:15;;;;;;;2.23;2.23;;;;;;;;;;5025555;28;20788;-77
2023/08/08 00:50:43;;;;;;;2.70;2.60;;;;;;;;;;5019297;28;20462;-78
2023/08/08 00:53:09;;;;;;;3.17;2.80;;;;;;;;;;5026989;28;20419;-77
2023/08/08 00:55:35;;;;;;;3.20;2.87;;;;;;;;;;5023435;28;20441;-77
2023/08/08 00:58:01;;;;;;;3.20;3.03;;;;;;;;;;5026988;28;20437;-78
2023/08/08 01:00:27;;;;;;;2.80;2.70;;;;;;;;;;5022542;28;20857;-77
2023/08/08 01:02:53;;;;;;;3.90;2.77;;;;;;;;;;5025523;28;20430;-78
2023/08/08 01:05:19;;;;;;;2.70;2.60;;;;;;;;;;5004129;28;21308;-77
2023/08/08 01:07:54;;;;;;;3.30;3.00;;;;;;;;;;5025726;28;20569;-77
2023/08/08 01:10:25;;;;;;;2.10;2.10;;;;;;;;;;5021336;28;20437;-77
2023/08/08 01:12:53;;;;;;;5.00;3.17;;;;;;;;;;5022168;28;20560;-77
2023/08/08 01:15:19;;;;;;;2.20;2.20;;;;;;;;;;4998347;28;20446;-77
2023/08/08 01:17:46;;;;;;;2.40;2.30;;;;;;;;;;5025922;28;20472;-77
2023/08/08 01:20:16;;;;;;;2.20;2.20;;;;;;;;;;5021264;28;20505;-78
2023/08/08 01:23:01;;;;;;;2.63;2.53;;;;;;;;;;5026508;28;20446;-78
2023/08/08 01:25:27;;;;;;;2.37;2.20;;;;;;;;;;5021461;28;20502;-78
2023/08/08 01:27:53;;;;;;;3.07;2.87;;;;;;;;;;5025387;28;20478;-78
2023/08/08 01:30:19;;;;;;;4.00;2.63;;;;;;;;;;5022112;28;20451;-78
2023/08/08 01:32:45;;;;;;;2.80;2.80;;;;;;;;;;5025907;28;21311;-78
2023/08/08 01:35:11;;;;;;;3.13;3.03;;;;;;;;;;5021727;28;21108;-78
2023/08/08 01:37:40;;;;;;;2.60;2.50;;;;;;;;;;5025794;28;21002;-78
2023/08/08 01:40:06;;;;;;;3.57;3.47;;;;;;;;;;5021935;28;20442;-77
2023/08/08 01:42:33;;;;;;;3.03;2.97;;;;;;;;;;5031119;28;20441;-77
2023/08/08 01:44:59;;;;;;;3.10;3.00;;;;;;;;;;5020355;28;20469;-77
2023/08/08 01:47:25;;;;;;;3.60;3.40;;;;;;;;;;5025011;28;20437;-77
2023/08/08 01:49:51;;;;;;;3.53;3.43;;;;;;;;;;5020642;28;20515;-78
2023/08/08 01:52:18;;;;;;;3.07;2.87;;;;;;;;;;5005257;28;20450;-78
2023/08/08 01:54:43;;;;;;;2.13;2.13;;;;;;;;;;5022001;28;20848;-78
2023/08/08 01:57:09;;;;;;;3.00;2.80;;;;;;;;;;5023537;28;20520;-78
2023/08/08 01:59:35;;;;;;;2.90;2.90;;;;;;;;;;5022538;28;20438;-77
2023/08/08 02:02:01;;;;;;;2.80;2.60;;;;;;;;;;4999670;28;20429;-77
2023/08/08 02:04:27;;;;;;;3.23;2.93;;;;;;;;;;5022496;28;20481;-76
2023/08/08 02:06:53;;;;;;;2.93;2.73;;;;;;;;;;5024797;28;20414;-76
2023/08/08 02:09:19;;;;;;;3.10;3.00;;;;;;;;;;5022407;28;20581;-76
2023/08/08 02:11:45;;;;;;;3.10;2.60;;;;;;;;;;5019956;28;20434;-77
2023/08/08 02:14:11;;;;;;;3.00;2.90;;;;;;;;;;5016337;28;21006;-76
2023/08/08 02:16:39;;;;;;;2.73;2.73;;;;;;;;;;5022855;28;20426;-77
2023/08/08 02:19:05;;;;;;;2.60;2.60;;;;;;;;;;5021681;28;20526;-77
2023/08/08 02:21:31;;;;;;;2.97;2.87;;;;;;;;;;5022857;28;20513;-76
2023/08/08 02:23:57;;;;;;;3.30;3.10;;;;;;;;;;5020521;28;20455;-76
2023/08/08 02:26:23;;;;;;;3.00;2.80;;;;;;;;;;5024001;28;21056;-76
2023/08/08 02:28:49;;;;;;;3.07;2.97;;;;;;;;;;5020357;28;20540;-77
2023/08/08 02:31:20;;;;;;;3.53;3.33;;;;;;;;;;5023436;28;20446;-77
2023/08/08 02:33:50;;;;;;;3.07;2.40;;;;;;;;;;5023660;28;20419;-76
2023/08/08 02:36:16;;;;;;;2.60;2.60;;;;;;;;;;5022810;28;20442;-77
2023/08/08 02:38:42;;;;;;;2.83;2.80;;;;;;;;;;5027307;28;20533;-78
2023/08/08 02:41:08;;;;;;;2.60;2.60;;;;;;;;;;5019991;28;20537;-77
2023/08/08 02:43:34;;;;;;;2.93;2.73;;;;;;;;;;5017951;28;20489;-77
2023/08/08 02:46:00;;;;;;;3.10;3.00;;;;;;;;;;5023247;28;20443;-77
2023/08/08 02:48:26;;;;;;;3.03;2.90;;;;;;;;;;5026812;28;20991;-77
2023/08/08 02:50:52;;;;;;;3.33;3.03;;;;;;;;;;5020470;28;20439;-78
2023/08/08 02:53:17;;;;;;;3.53;3.33;;;;;;;;;;5021122;28;20441;-77
2023/08/08 02:55:43;;;;;;;3.03;2.93;;;;;;;;;;5023675;28;20870;-77
2023/08/08 02:58:09;;;;;;;4.00;3.10;;;;;;;;;;5024100;28;20526;-78
2023/08/08 03:00:36;;;;;;;2.97;2.87;;;;;;;;;;5020232;28;20520;-77
2023/08/08 03:03:02;;;;;;;3.50;3.30;;;;;;;;;;5025377;28;20439;-77
2023/08/08 03:05:28;;;;;;;4.67;3.17;;;;;;;;;;5021315;28;20550;-76
2023/08/08 03:07:54;;;;;;;3.73;2.80;;;;;;;;;;5027511;28;20445;-77
2023/08/08 03:10:20;;;;;;;2.77;2.77;;;;;;;;;;5030930;28;20530;-77
2023/08/08 03:12:46;;;;;;;2.53;2.53;;;;;;;;;;5025416;28;20431;-78
2023/08/08 03:15:12;;;;;;;3.33;3.23;;;;;;;;;;5021566;28;20808;-77
2023/08/08 03:17:38;;;;;;;5.13;3.17;;;;;;;;;;5025984;28;20434;-77
2023/08/08 03:20:06;;;;;;;2.97;2.77;;;;;;;;;;5021246;28;20777;-76
2023/08/08 03:22:32;;;;;;;3.00;2.97;;;;;;;;;;5028580;28;20427;-76
2023/08/08 03:24:58;;;;;;;3.83;3.60;;;;;;;;;;5022288;28;20505;-77
2023/08/08 03:27:24;;;;;;;4.63;4.20;;;;;;;;;;5035125;28;20426;-77
2023/08/08 03:29:50;;;;;;;3.47;3.27;;;;;;;;;;5031227;28;20459;-77
2023/08/08 03:32:16;;;;;;;3.60;3.30;;;;;;;;;;5021118;28;20532;-77
2023/08/08 03:34:42;;;;;;;3.33;3.23;;;;;;;;;;5016333;28;20934;-77
2023/08/08 03:37:08;;;;;;;3.93;3.40;;;;;;;;;;5025106;28;20481;-77
2023/08/08 03:39:34;;;;;;;3.33;3.20;;;;;;;;;;5025792;28;20468;-78
2023/08/08 03:42:00;;;;;;;2.93;2.83;;;;;;;;;;5024930;28;20450;-76
2023/08/08 03:44:26;;;;;;;3.50;3.40;;;;;;;;;;5020923;28;20504;-77
2023/08/08 03:46:52;;;;;;;3.60;3.40;;;;;;;;;;5024364;28;20419;-76
2023/08/08 03:49:18;;;;;;;4.37;4.07;;;;;;;;;;5028663;28;20804;-76
2023/08/08 03:51:44;;;;;;;3.67;3.47;;;;;;;;;;5024998;28;20418;-78
2023/08/08 03:54:10;;;;;;;3.70;3.60;;;;;;;;;;5021396;28;20442;-77
2023/08/08 03:56:36;;;;;;;4.23;4.10;;;;;;;;;;5029368;28;20517;-76
2023/08/08 03:59:02;;;;;;;4.43;4.03;;;;;;;;;;5029901;28;20515;-76
2023/08/08 04:01:28;;;;;;;3.90;3.57;;;;;;;;;;5028760;28;20488;-77
2023/08/08 04:03:54;;;;;;;4.20;4.00;;;;;;;;;;5030946;28;20476;-76
2023/08/08 04:06:20;;;;;;;4.20;3.83;;;;;;;;;;5024980;28;20561;-76
2023/08/08 04:08:46;;;;;;;3.60;3.43;;;;;;;;;;5034722;28;20498;-77
2023/08/08 04:11:12;;;;;;;4.83;4.27;;;;;;;;;;5020194;28;20965;-76
2023/08/08 04:13:38;;;;;;;11.00;4.60;;;;;;;;;;5031588;28;20462;-77
2023/08/08 04:16:04;;;;;;;4.40;4.10;;;;;;;;;;5012953;28;20496;-77
2023/08/08 04:18:30;;;;;;;7.50;4.27;;;;;;;;;;5024803;28;20441;-76
2023/08/08 04:20:56;;;;;;;4.30;3.90;;;;;;;;;;5023313;28;20430;-76
2023/08/08 04:23:25;;;;;;;5.07;4.77;;;;;;;;;;5024576;28;20446;-79
2023/08/08 04:25:51;;;;;;;5.70;4.70;;;;;;;;;;5031162;28;20548;-77
2023/08/08 04:28:17;;;;;;;14.53;11.57;;;;;;;;;;5021684;28;20459;-76
2023/08/08 04:30:43;;;;;;;8.17;7.47;;;;;;;;;;5024267;28;20504;-77
2023/08/08 04:33:09;;;;;;;4.60;4.27;;;;;;;;;;5028934;28;21004;-76
2023/08/08 04:35:35;;;;;;;5.70;5.43;;;;;;;;;;5024000;28;20438;-78
2023/08/08 04:38:02;;;;;;;4.40;4.20;;;;;;;;;;5005399;28;20862;-77
2023/08/08 04:40:28;;;;;;;8.20;5.80;;;;;;;;;;5020978;28;20521;-78
2023/08/08 04:42:54;;;;;;;5.93;5.50;;;;;;;;;;5022878;28;20449;-78
2023/08/08 04:45:20;;;;;;;4.97;4.67;;;;;;;;;;4991912;28;20529;-78
2023/08/08 04:47:59;;;;;;;5.70;5.30;;;;;;;;;;5000597;28;20443;-77
2023/08/08 04:50:25;;;;;;;9.57;5.23;;;;;;;;;;5015631;28;20460;-78
2023/08/08 04:52:51;;;;;;;6.10;5.23;;;;;;;;;;5017034;28;20449;-76
2023/08/08 04:55:17;;;;;;;6.27;5.50;;;;;;;;;;5003721;28;21248;-78
2023/08/08 04:57:43;;;;;;;6.80;5.27;;;;;;;;;;5019205;28;20442;-78
2023/08/08 05:00:10;;;;;;;6.33;5.67;;;;;;;;;;5023333;28;20906;-77
2023/08/08 05:02:36;;;;;;;10.20;5.40;;;;;;;;;;5020162;28;20537;-78
2023/08/08 05:05:02;;;;;;;10.87;6.80;;;;;;;;;;5022794;28;20480;-78
2023/08/08 05:07:28;;;;;;;7.27;6.60;;;;;;;;;;5026161;28;21137;-78
2023/08/08 05:09:54;;;;;;;7.10;6.37;;;;;;;;;;5029523;28;21071;-78
2023/08/08 05:12:23;;;;;;;8.60;7.80;;;;;;;;;;5021336;28;20597;-78
2023/08/08 05:14:51;;;;;;;7.13;6.80;;;;;;;;;;5018846;28;21165;-76
2023/08/08 05:17:18;;;;;;;6.50;6.00;;;;;;;;;;5024096;28;20439;-76
2023/08/08 05:19:44;;;;;;;11.37;8.90;;;;;;;;;;5020414;28;20820;-77
2023/08/08 05:22:10;;;;;;;11.47;7.87;;;;;;;;;;5024101;28;20425;-77
2023/08/08 05:24:36;;;;;;;8.20;7.40;;;;;;;;;;5023574;28;20516;-81
2023/08/08 05:27:03;;;;;;;11.10;8.07;;;;;;;;;;5024388;28;20806;-78
2023/08/08 05:29:30;;;;;;;9.63;8.63;;;;;;;;;;5022512;28;20419;-78
2023/08/08 05:31:56;;;;;;;11.10;8.37;;;;;;;;;;5021731;28;20441;-78
2023/08/08 05:34:24;;;;;;;9.53;8.53;;;;;;;;;;5005837;28;20420;-78
2023/08/08 05:36:50;;;;;;;15.30;8.10;;;;;;;;;;5028003;28;20470;-77
2023/08/08 05:39:21;;;;;;;9.93;9.07;;;;;;;;;;5007988;28;20447;-79
2023/08/08 05:41:47;;;;;;;9.97;8.93;;;;;;;;;;5024102;28;20438;-79
2023/08/08 05:44:13;;;;;;;10.53;8.53;;;;;;;;;;5017211;28;20474;-78
2023/08/08 05:46:42;;;;;;;9.90;8.50;;;;;;;;;;5025465;28;20499;-78
2023/08/08 05:49:08;;;;;;;13.00;8.87;;;;;;;;;;5025440;28;20415;-77
2023/08/08 05:51:34;;;;;;;10.83;9.00;;;;;;;;;;5009599;28;20577;-78
2023/08/08 05:54:00;;;;;;;11.63;9.30;;;;;;;;;;5026655;28;20772;-81
2023/08/08 05:56:28;;;;;;;11.00;9.60;;;;;;;;;;5025694;28;20784;-78
2023/08/08 05:58:54;;;;;;;11.03;9.33;;;;;;;;;;5023156;28;20419;-77
2023/08/08 06:01:20;;;;;;;13.47;9.90;;;;;;;;;;5021594;28;20435;-76
2023/08/08 06:03:47;;;;;;;12.03;8.80;;;;;;;;;;5022595;28;20662;-76
2023/08/08 06:06:13;;;;;;;15.30;9.20;;;;;;;;;;5020724;28;20430;-77
2023/08/08 06:08:39;;;;;;;10.07;8.77;;;;;;;;;;5025832;28;20461;-78
2023/08/08 06:11:05;;;;;;;12.00;9.90;;;;;;;;;;5022558;28;20474;-79
2023/08/08 06:13:31;;;;;;;11.23;10.20;;;;;;;;;;5029125;28;20765;-77
2023/08/08 06:15:57;;;;;;;14.30;11.60;;;;;;;;;;5028409;28;20565;-76
2023/08/08 06:18:23;;;;;;;11.63;9.33;;;;;;;;;;5026695;28;20449;-78
2023/08/08 06:20:49;;;;;;;12.13;9.50;;;;;;;;;;5029719;28;20426;-76
2023/08/08 06:23:15;;;;;;;10.80;8.70;;;;;;;;;;5023354;28;20434;-77
2023/08/08 06:25:41;;;;;;;11.53;9.63;;;;;;;;;;5032609;28;20543;-77
2023/08/08 06:28:07;;;;;;;10.20;7.97;;;;;;;;;;5028545;28;20438;-77
2023/08/08 06:30:33;;;;;;;10.50;9.00;;;;;;;;;;5024867;28;20458;-77
2023/08/08 06:32:59;;;;;;;10.70;9.63;;;;;;;;;;5023936;28;20470;-78
2023/08/08 06:35:25;;;;;;;11.13;9.93;;;;;;;;;;5025502;28;20467;-77
2023/08/08 06:37:51;;;;;;;13.43;10.67;;;;;;;;;;5021199;28;20894;-79
2023/08/08 06:40:17;;;;;;;20.17;10.50;;;;;;;;;;5024479;28;20469;-77
2023/08/08 06:42:43;;;;;;;13.90;10.30;;;;;;;;;;5021739;28;20476;-77
2023/08/08 06:45:09;;;;;;;13.93;12.47;;;;;;;;;;5024959;28;20477;-77
2023/08/08 06:47:35;;;;;;;13.73;10.20;;;;;;;;;;5024560;28;20509;-72
2023/08/08 06:50:01;;;;;;;13.53;11.30;;;;;;;;;;5018606;28;20533;-77
2023/08/08 06:52:27;;;;;;;11.63;10.73;;;;;;;;;;5020572;28;21191;-76
2023/08/08 06:54:53;;;;;;;12.20;9.87;;;;;;;;;;5018715;28;20442;-75
2023/08/08 06:57:19;;;;;;;14.23;10.77;;;;;;;;;;5023538;28;20442;-77
2023/08/08 06:59:50;;;;;;;12.97;11.37;;;;;;;;;;5013706;28;20447;-76
2023/08/08 07:02:16;;;;;;;11.30;10.30;;;;;;;;;;5023253;28;20415;-74
2023/08/08 07:04:42;;;;;;;11.03;10.03;;;;;;;;;;5017047;28;20463;-78
2023/08/08 07:07:08;;;;;;;10.37;9.40;;;;;;;;;;5024433;28;20429;-76
2023/08/08 07:09:34;;;;;;;10.73;9.70;;;;;;;;;;5027029;28;20834;-78
2023/08/08 07:12:00;;;;;;;10.93;9.83;;;;;;;;;;5031872;28;20457;-76
2023/08/08 07:14:26;;;;;;;12.83;10.00;;;;;;;;;;5014181;28;20476;-77
2023/08/08 07:16:53;;;;;;;11.60;10.30;;;;;;;;;;5022169;28;20481;-77
2023/08/08 07:19:19;;;;;;;8.93;8.33;;;;;;;;;;5021852;28;20454;-77
2023/08/08 07:21:46;;;;;;;9.30;8.20;;;;;;;;;;5019720;28;22567;-76
2023/08/08 07:24:12;;;;;;;9.30;8.50;;;;;;;;;;5023251;28;20848;-77
2023/08/08 07:26:39;;;;;;;10.43;9.27;;;;;;;;;;5019607;28;20447;-78
2023/08/08 07:29:07;;;;;;;8.27;7.47;;;;;;;;;;5022331;28;20549;-75
2023/08/08 07:31:33;;;;;;;9.33;8.33;;;;;;;;;;5021434;28;20482;-76
2023/08/08 07:33:59;;;;;;;8.97;8.07;;;;;;;;;;5023105;28;20453;-77
2023/08/08 07:36:25;;;;;;;9.63;8.93;;;;;;;;;;5018797;28;20464;-75
2023/08/08 07:38:51;;;;;;;8.07;7.57;;;;;;;;;;5017756;28;21016;-76
2023/08/08 07:41:18;;;;;;;8.20;7.40;;;;;;;;;;5022196;28;20533;-75
2023/08/08 07:43:44;;;;;;;7.47;6.83;;;;;;;;;;5019482;28;20488;-75
2023/08/08 07:46:10;;;;;;;8.13;7.33;;;;;;;;;;5025978;28;20496;-76
2023/08/08 07:48:36;;;;;;;8.33;7.63;;;;;;;;;;5020685;28;21244;-76
2023/08/08 07:51:03;;;;;;;8.40;7.50;;;;;;;;;;5022116;28;20435;-76
2023/08/08 07:53:29;;;;;;;8.17;7.50;;;;;;;;;;5017990;28;21090;-75
2023/08/08 07:55:55;;;;;;;6.97;6.20;;;;;;;;;;5022813;28;20632;-76
2023/08/08 07:58:23;;;;;;;6.43;6.03;;;;;;;;;;5028275;28;20447;-78
2023/08/08 08:00:49;;;;;;;8.73;7.90;;;;;;;;;;5021282;28;20483;-78
2023/08/08 08:03:15;;;;;;;6.70;6.30;;;;;;;;;;5020220;28;20450;-77
2023/08/08 08:05:41;;;;;;;5.93;5.43;;;;;;;;;;5026079;28;20496;-77
2023/08/08 08:08:07;;;;;;;6.70;6.03;;;;;;;;;;5021369;28;20442;-78
2023/08/08 08:10:33;;;;;;;6.03;5.40;;;;;;;;;;5005808;28;20485;-77
2023/08/08 08:12:59;;;;;;;6.00;5.53;;;;;;;;;;5016232;28;20703;-77
2023/08/08 08:15:25;;;;;;;5.50;5.10;;;;;;;;;;5025991;28;20533;-77
2023/08/08 08:17:51;;;;;;;9.33;6.00;;;;;;;;;;5027182;28;20448;-77
2023/08/08 08:20:17;;;;;;;11.40;5.43;;;;;;;;;;5026206;28;20431;-77
2023/08/08 08:22:44;;;;;;;5.07;4.67;;;;;;;;;;5017516;28;20446;-78
2023/08/08 08:25:10;;;;;;;6.10;5.37;;;;;;;;;;5028587;28;20525;-76
2023/08/08 08:27:37;;;;;;;5.03;4.57;;;;;;;;;;5027226;28;20427;-77
2023/08/08 08:30:04;;;;;;;5.27;4.90;;;;;;;;;;5018698;28;20450;-78
2023/08/08 08:32:32;;;;;;;4.50;4.10;;;;;;;;;;5021495;28;20461;-77
2023/08/08 08:34:58;;;;;;;4.50;4.10;;;;;;;;;;5021267;28;20446;-76
2023/08/08 08:37:24;;;;;;;3.87;3.57;;;;;;;;;;5019087;28;20442;-77
2023/08/08 08:39:50;;;;;;;4.00;3.80;;;;;;;;;;5020599;28;20443;-77
2023/08/08 08:42:16;;;;;;;5.20;4.80;;;;;;;;;;5023525;28;20448;-77
2023/08/08 08:44:43;;;;;;;12.50;4.30;;;;;;;;;;5004141;28;21944;-77
2023/08/08 08:47:10;;;;;;;4.20;3.90;;;;;;;;;;5027990;28;20430;-78
2023/08/08 08:49:38;;;;;;;4.90;4.33;;;;;;;;;;5019351;28;20511;-77
2023/08/08 08:52:05;;;;;;;2.93;2.83;;;;;;;;;;5038025;28;20429;-75
2023/08/08 08:54:31;;;;;;;6.80;3.53;;;;;;;;;;5029049;28;20515;-78
2023/08/08 08:56:58;;;;;;;2.97;2.87;;;;;;;;;;5023883;28;20441;-77
2023/08/08 08:59:24;;;;;;;3.60;3.47;;;;;;;;;;4994801;28;20430;-77
2023/08/08 09:01:51;;;;;;;5.37;3.63;;;;;;;;;;5024261;28;20445;-78
2023/08/08 09:04:18;;;;;;;3.40;3.20;;;;;;;;;;5021752;28;20461;-77
2023/08/08 09:06:45;;;;;;;4.23;3.93;;;;;;;;;;5008031;28;20986;-77
2023/08/08 09:09:13;;;;;;;2.97;2.87;;;;;;;;;;5020471;28;21063;-77
2023/08/08 09:11:40;;;;;;;3.37;3.17;;;;;;;;;;5019808;28;20453;-77
2023/08/08 09:14:16;;;;;;;3.30;3.10;;;;;;;;;;5018494;28;20458;-78
2023/08/08 09:16:42;;;;;;;3.93;3.73;;;;;;;;;;5021665;28;20426;-78
2023/08/08 09:19:08;;;;;;;3.83;3.53;;;;;;;;;;4995255;28;20443;-77
2023/08/08 09:21:34;;;;;;;5.20;3.53;;;;;;;;;;5006884;28;20433;-77
2023/08/08 09:24:00;;;;;;;3.70;3.00;;;;;;;;;;5017280;28;20473;-78
2023/08/08 09:26:26;;;;;;;3.77;3.47;;;;;;;;;;5024896;28;20496;-78
2023/08/08 09:28:53;;;;;;;4.23;3.50;;;;;;;;;;5021110;28;20605;-79
2023/08/08 09:31:19;;;;;;;3.87;3.40;;;;;;;;;;5024012;28;20433;-79
2023/08/08 09:33:48;;;;;;;3.80;3.60;;;;;;;;;;5020331;28;20998;-78
2023/08/08 09:36:15;;;;;;;3.30;3.20;;;;;;;;;;5022062;28;20426;-77
2023/08/08 09:38:41;;;;;;;3.67;3.27;;;;;;;;;;5019130;28;20446;-77
2023/08/08 09:41:07;;;;;;;3.37;3.07;;;;;;;;;;5025843;28;20414;-78
2023/08/08 09:43:33;;;;;;;3.93;3.53;;;;;;;;;;5020968;28;20496;-78
2023/08/08 09:45:59;;;;;;;3.07;2.93;;;;;;;;;;5019950;28;20466;-78
2023/08/08 09:48:32;;;;;;;5.27;3.80;;;;;;;;;;5026577;28;21024;-78
2023/08/08 09:51:01;;;;;;;6.97;3.50;;;;;;;;;;5027954;28;20453;-78
2023/08/08 09:53:28;;;;;;;3.53;3.20;;;;;;;;;;4998070;28;21277;-78
2023/08/08 09:55:58;;;;;;;3.20;3.10;;;;;;;;;;5002293;28;20853;-78
2023/08/08 09:58:24;;;;;;;4.10;3.73;;;;;;;;;;5021330;28;20512;-77
2023/08/08 10:00:50;;;;;;;3.83;3.60;;;;;;;;;;5005843;28;20528;-78
2023/08/08 10:03:17;;;;;;;3.77;3.53;;;;;;;;;;5021058;28;20485;-77
2023/08/08 10:05:43;;;;;;;3.80;3.07;;;;;;;;;;5022997;28;20619;-79
2023/08/08 10:08:10;;;;;;;3.60;3.37;;;;;;;;;;5026272;28;20453;-77
2023/08/08 10:10:37;;;;;;;3.60;3.40;;;;;;;;;;5025421;28;20537;-77
2023/08/08 10:13:03;;;;;;;3.93;3.60;;;;;;;;;;5021373;28;20449;-77
2023/08/08 10:15:29;;;;;;;5.30;3.83;;;;;;;;;;5006689;28;20434;-78
2023/08/08 10:17:58;;;;;;;4.30;4.00;;;;;;;;;;5021732;28;20447;-78
2023/08/08 10:20:25;;;;;;;4.97;3.83;;;;;;;;;;5021880;28;20502;-78
2023/08/08 10:22:54;;;;;;;5.10;4.70;;;;;;;;;;5020536;28;20446;-76
2023/08/08 10:25:23;;;;;;;3.13;3.00;;;;;;;;;;5023516;28;20493;-78
2023/08/08 10:27:49;;;;;;;6.27;4.77;;;;;;;;;;5018086;28;20445;-77
2023/08/08 10:30:15;;;;;;;4.27;3.43;;;;;;;;;;5022964;28;20438;-77
2023/08/08 10:32:42;;;;;;;3.30;3.10;;;;;;;;;;5018164;28;20442;-77
2023/08/08 10:35:09;;;;;;;3.77;3.10;;;;;;;;;;5018561;28;21214;-78
2023/08/08 10:37:36;;;;;;;3.50;3.20;;;;;;;;;;5011966;28;20497;-79
2023/08/08 10:40:06;;;;;;;4.20;2.97;;;;;;;;;;5023387;28;20454;-76
2023/08/08 10:42:32;;;;;;;4.73;3.20;;;;;;;;;;5019131;28;21241;-77
2023/08/08 10:44:59;;;;;;;3.50;3.40;;;;;;;;;;5021380;28;20591;-76
2023/08/08 10:47:25;;;;;;;3.33;3.20;;;;;;;;;;4999787;28;20438;-76
2023/08/08 10:50:09;;;;;;;3.57;3.37;;;;;;;;;;5019877;28;20911;-77
2023/08/08 10:52:47;;;;;;;7.67;3.20;;;;;;;;;;5016963;28;20439;-76
2023/08/08 10:55:19;;;;;;;3.20;2.90;;;;;;;;;;5025092;28;20457;-76
2023/08/08 10:57:52;;;;;;;3.23;3.07;;;;;;;;;;5024214;28;20445;-74
2023/08/08 11:00:18;;;;;;;3.53;3.30;;;;;;;;;;5020040;28;20485;-76
2023/08/08 11:02:45;;;;;;;3.37;3.13;;;;;;;;;;5032460;28;20941;-76
2023/08/08 11:05:12;;;;;;;3.50;3.30;;;;;;;;;;5026592;28;20785;-76
2023/08/08 11:07:38;;;;;;;3.20;2.70;;;;;;;;;;5028157;28;21161;-76
2023/08/08 11:10:04;;;;;;;5.83;2.93;;;;;;;;;;5002079;28;20610;-77
2023/08/08 11:12:30;;;;;;;3.30;3.10;;;;;;;;;;5033644;28;20422;-76
2023/08/08 11:14:57;;;;;;;6.80;3.40;;;;;;;;;;5024162;28;20884;-77
2023/08/08 11:17:23;;;;;;;3.73;2.60;;;;;;;;;;5003430;28;20510;-77
2023/08/08 11:19:50;;;;;;;3.90;2.67;;;;;;;;;;5016261;28;20470;-76
2023/08/08 11:22:17;;;;;;;3.17;2.97;;;;;;;;;;5022330;28;20419;-77
2023/08/08 11:24:43;;;;;;;5.70;2.80;;;;;;;;;;5018436;28;20470;-77
2023/08/08 11:27:09;;;;;;;2.90;2.80;;;;;;;;;;5022786;28;20423;-78
2023/08/08 11:29:35;;;;;;;4.57;3.23;;;;;;;;;;5019879;28;20474;-75
2023/08/08 11:32:05;;;;;;;3.80;3.67;;;;;;;;;;5021426;28;20423;-76
2023/08/08 11:34:32;;;;;;;3.57;3.37;;;;;;;;;;5017107;28;20438;-75
2023/08/08 11:36:59;;;;;;;3.40;3.20;;;;;;;;;;5022872;28;20417;-76
2023/08/08 11:39:26;;;;;;;3.30;3.07;;;;;;;;;;5019097;28;20450;-77
2023/08/08 11:41:52;;;;;;;4.57;4.17;;;;;;;;;;5020774;28;20427;-77
2023/08/08 11:44:19;;;;;;;7.03;4.10;;;;;;;;;;5021592;28;20478;-76
2023/08/08 11:46:48;;;;;;;3.40;3.30;;;;;;;;;;5024924;28;20419;-78
2023/08/08 11:49:16;;;;;;;3.40;3.20;;;;;;;;;;5019689;28;20425;-79
2023/08/08 11:51:44;;;;;;;5.90;3.43;;;;;;;;;;5023382;28;20454;-79
2023/08/08 11:54:10;;;;;;;4.73;3.63;;;;;;;;;;5022571;28;20431;-78
2023/08/08 11:56:36;;;;;;;3.60;3.40;;;;;;;;;;5022115;28;20792;-76
2023/08/08 11:59:03;;;;;;;3.43;3.13;;;;;;;;;;5022937;28;21041;-78
2023/08/08 12:01:31;;;;;;;3.93;3.70;;;;;;;;;;5023108;28;20530;-78
2023/08/08 12:03:57;;;;;;;3.60;3.40;;;;;;;;;;5024784;28;20446;-78
2023/08/08 12:06:28;;;;;;;3.77;3.57;;;;;;;;;;5019155;28;20438;-77
2023/08/08 12:08:57;;;;;;;4.27;3.97;;;;;;;;;;5022736;28;20426;-78
2023/08/08 12:11:23;;;;;;;3.27;3.07;;;;;;;;;;5016100;28;20450;-78
2023/08/08 12:13:49;;;;;;;11.43;10.23;;;;;;;;;;5007929;28;20445;-77
2023/08/08 12:16:16;;;;;;;3.33;3.03;;;;;;;;;;5020160;28;20541;-79
2023/08/08 12:18:42;;;;;;;3.50;3.20;;;;;;;;;;5025411;28;20479;-80
2023/08/08 12:21:09;;;;;;;5.03;3.10;;;;;;;;;;5019885;28;20446;-78
2023/08/08 12:23:36;;;;;;;6.00;3.50;;;;;;;;;;5005915;28;20956;-79
2023/08/08 12:26:05;;;;;;;3.97;3.67;;;;;;;;;;5019285;28;20486;-79
2023/08/08 12:28:32;;;;;;;4.30;3.37;;;;;;;;;;5000400;28;20556;-77
2023/08/08 12:30:58;;;;;;;5.43;3.07;;;;;;;;;;5021761;28;20474;-78
2023/08/08 12:33:24;;;;;;;2.87;2.77;;;;;;;;;;5020410;28;20434;-78
2023/08/08 12:35:50;;;;;;;3.07;2.87;;;;;;;;;;5019130;28;20438;-78
2023/08/08 12:38:16;;;;;;;3.40;3.20;;;;;;;;;;5023728;28;20463;-77
2023/08/08 12:40:42;;;;;;;4.50;4.20;;;;;;;;;;5019121;28;20461;-78
2023/08/08 12:43:09;;;;;;;3.00;2.90;;;;;;;;;;5031785;28;20472;-77
2023/08/08 12:45:35;;;;;;;3.43;3.13;;;;;;;;;;5001010;28;20474;-78
2023/08/08 12:48:01;;;;;;;3.57;3.37;;;;;;;;;;5029635;28;20439;-79
2023/08/08 12:50:28;;;;;;;3.00;2.80;;;;;;;;;;5015910;28;21229;-77
2023/08/08 12:52:54;;;;;;;3.90;3.20;;;;;;;;;;5008384;28;21148;-77
2023/08/08 12:55:20;;;;;;;3.00;2.90;;;;;;;;;;5021955;28;20443;-78
2023/08/08 12:57:46;;;;;;;5.97;3.30;;;;;;;;;;5026897;28;20987;-78
2023/08/08 13:00:12;;;;;;;3.33;3.13;;;;;;;;;;5002520;28;20434;-77
2023/08/08 13:02:39;;;;;;;3.37;3.17;;;;;;;;;;5030615;28;20506;-79
2023/08/08 13:05:07;;;;;;;2.80;2.63;;;;;;;;;;5020692;28;21112;-78
2023/08/08 13:07:33;;;;;;;3.27;3.07;;;;;;;;;;5002853;28;20463;-78
2023/08/08 13:09:59;;;;;;;2.87;2.77;;;;;;;;;;5019783;28;20502;-79
2023/08/08 13:12:25;;;;;;;2.83;2.70;;;;;;;;;;5016282;28;20485;-76
2023/08/08 13:14:51;;;;;;;3.03;2.67;;;;;;;;;;5020799;28;20443;-78
2023/08/08 13:17:17;;;;;;;4.13;2.80;;;;;;;;;;5023568;28;20433;-79
2023/08/08 13:19:43;;;;;;;3.03;2.93;;;;;;;;;;5001735;28;20450;-79
2023/08/08 13:22:09;;;;;;;3.07;2.87;;;;;;;;;;5020898;28;20477;-78
2023/08/08 13:24:35;;;;;;;3.10;2.90;;;;;;;;;;5019634;28;20574;-78
2023/08/08 13:27:01;;;;;;;3.53;3.33;;;;;;;;;;4996388;28;21041;-78
2023/08/08 13:29:27;;;;;;;3.57;3.37;;;;;;;;;;5018118;28;20442;-78
2023/08/08 13:31:53;;;;;;;3.00;2.90;;;;;;;;;;5026451;28;20839;-78
2023/08/08 13:34:19;;;;;;;3.33;3.03;;;;;;;;;;5024454;28;20488;-76
2023/08/08 13:36:45;;;;;;;3.67;3.37;;;;;;;;;;5023127;28;20433;-78
2023/08/08 13:39:11;;;;;;;3.17;3.07;;;;;;;;;;5021874;28;20809;-78
2023/08/08 13:41:37;;;;;;;3.33;3.23;;;;;;;;;;5020157;28;20521;-77
2023/08/08 13:44:04;;;;;;;3.47;3.20;;;;;;;;;;5020999;28;20546;-77
2023/08/08 13:46:29;;;;;;;4.27;3.87;;;;;;;;;;5000546;28;20507;-78
2023/08/08 13:48:55;;;;;;;3.80;3.50;;;;;;;;;;5018696;28;20439;-78
2023/08/08 13:51:22;;;;;;;2.80;2.70;;;;;;;;;;5020052;28;20453;-77
2023/08/08 13:53:51;;;;;;;2.77;2.57;;;;;;;;;;5016650;28;20503;-79
2023/08/08 13:56:17;;;;;;;3.20;3.00;;;;;;;;;;5025954;28;20442;-79
2023/08/08 13:58:43;;;;;;;3.03;2.70;;;;;;;;;;5000578;28;20771;-77
2023/08/08 14:01:09;;;;;;;2.57;2.47;;;;;;;;;;5026071;28;20835;-77
2023/08/08 14:03:38;;;;;;;2.17;2.07;;;;;;;;;;5021081;28;20529;-78
2023/08/08 14:06:04;;;;;;;2.92;2.83;;;;;;;;;;5024910;28;20445;-79
2023/08/08 14:08:30;;;;;;;2.77;2.60;;;;;;;;;;5038272;28;20199;-77
2023/08/08 14:10:56;;;;;;;3.60;3.30;;;;;;;;;;5018025;28;20430;-78
2023/08/08 14:13:22;;;;;;;3.50;3.20;;;;;;;;;;5006229;28;20443;-78
2023/08/08 14:15:48;;;;;;;2.27;2.17;;;;;;;;;;5013618;28;20938;-78
2023/08/08 14:18:14;;;;;;;3.57;3.23;;;;;;;;;;5021451;28;20439;-77
2023/08/08 14:20:41;;;;;;;3.10;2.90;;;;;;;;;;5024908;28;20792;-78
2023/08/08 14:23:07;;;;;;;2.90;2.70;;;;;;;;;;5027399;28;20446;-79
2023/08/08 14:25:33;;;;;;;3.33;3.13;;;;;;;;;;5026026;28;20620;-78
2023/08/08 14:28:00;;;;;;;2.67;2.57;;;;;;;;;;5022030;28;20530;-76
2023/08/08 14:30:27;;;;;;;3.30;3.10;;;;;;;;;;5019922;28;20469;-77
2023/08/08 14:32:54;;;;;;;2.97;2.87;;;;;;;;;;5020325;28;20462;-78
2023/08/08 14:35:20;;;;;;;2.80;2.60;;;;;;;;;;5024527;28;20517;-78
2023/08/08 14:37:46;;;;;;;2.40;2.30;;;;;;;;;;5006535;28;20446;-78